Huvudsida
METAR-TAF:

METAR-TAF

Flygplatser :

Hammerfests flygplats

Hammerfests, Norge

latitud: 70-40N, longitud: 023-40E, höjd: 8 m

Aktuellt väderrapport

Denna rapport gjordes för 21 minuter sedan, klockan 17:20 UTC
Vind 16 kt från ost/sydost
Temperatur 11°C
Fuktighet 76%
Tryck 973 hPa
Sikt 10 km eller mer

METAR: ENHF 221720Z AUTO 11016KT 9999 BKN051/// BKN064/// 11/07 Q0973 RMK WIND 1254FT 14036KT

Tid: 19:41 (17:41 UTC)

Väderprognos

Denna rapport gjordes för 7 timmar och 24 minuter sedan, klockan 10:17 UTC
Prognos gäller från 22 kl. 10 UTC till 22 kl. 14 UTC
Vind 20 kt från ost/nordost
Sikt 10 km eller mer
Få moln på en höjd av 1000 ft
Brutna moln på en höjd av 3000 ft
Temporärt
från 22 kl. 10 UTC till 22 kl. 14 UTC
Vind 28 kt från ost i byarna ända upp till 40 kt
Temporärt
från 22 kl. 10 UTC till 22 kl. 14 UTC
Brutna moln på en höjd av 1200 ft
regn

TAF: ENHF 221017Z 2210/2214 06020KT 9999 FEW010 BKN030 TEMPO 2210/2214 10028G40KT TEMPO 2210/2214 RA BKN012

Aktuella väderrapporter och prognoser från 4000 flygplatser (METAR- och TAF-rapporter).

De tillgängliga stationerna syns som gula och röda prickar på kartan.

För musen över prickarna för att se namnen på stationerna.

Klicka sedan för att få väderrapporter och prognoser.

För att ändra kartan: Klicka på de gröna knapparna med ett svart kors på för att zooma in; den gröna knappen med ett streck på för att zooma ut; eller på de gröna pilarna för angränsande kartor.


METAR-TAF: